sensor_id;sensor_type;location;lat;lon;timestamp;P1;durP1;ratioP1;P2;durP2;ratioP2
2111;SDS011;1062;52.538;13.400;2023-08-06T00:00:39;8.20;;;7.20;;
2111;SDS011;1062;52.538;13.400;2023-08-06T00:03:04;8.00;;;7.20;;
2111;SDS011;1062;52.538;13.400;2023-08-06T00:05:30;8.10;;;7.40;;
2111;SDS011;1062;52.538;13.400;2023-08-06T00:07:56;8.43;;;7.70;;
2111;SDS011;1062;52.538;13.400;2023-08-06T00:10:21;8.33;;;7.67;;
2111;SDS011;1062;52.538;13.400;2023-08-06T00:12:47;7.67;;;6.93;;
2111;SDS011;1062;52.538;13.400;2023-08-06T00:15:13;9.70;;;8.80;;
2111;SDS011;1062;52.538;13.400;2023-08-06T00:17:39;9.53;;;8.63;;
2111;SDS011;1062;52.538;13.400;2023-08-06T00:20:05;9.60;;;8.70;;
2111;SDS011;1062;52.538;13.400;2023-08-06T00:22:35;8.37;;;7.60;;
2111;SDS011;1062;52.538;13.400;2023-08-06T00:25:01;9.20;;;8.40;;
2111;SDS011;1062;52.538;13.400;2023-08-06T00:27:28;8.40;;;7.73;;
2111;SDS011;1062;52.538;13.400;2023-08-06T00:29:54;9.10;;;7.50;;
2111;SDS011;1062;52.538;13.400;2023-08-06T00:32:21;8.40;;;7.70;;
2111;SDS011;1062;52.538;13.400;2023-08-06T00:34:47;9.13;;;8.27;;
2111;SDS011;1062;52.538;13.400;2023-08-06T00:37:14;8.33;;;7.67;;
2111;SDS011;1062;52.538;13.400;2023-08-06T00:39:41;8.67;;;7.97;;
2111;SDS011;1062;52.538;13.400;2023-08-06T00:42:07;8.37;;;7.63;;
2111;SDS011;1062;52.538;13.400;2023-08-06T00:44:33;8.10;;;7.37;;
2111;SDS011;1062;52.538;13.400;2023-08-06T00:46:59;9.30;;;8.50;;
2111;SDS011;1062;52.538;13.400;2023-08-06T00:49:25;9.10;;;8.20;;
2111;SDS011;1062;52.538;13.400;2023-08-06T00:51:50;8.37;;;7.67;;
2111;SDS011;1062;52.538;13.400;2023-08-06T00:54:17;10.73;;;8.27;;
2111;SDS011;1062;52.538;13.400;2023-08-06T00:56:42;9.10;;;8.30;;
2111;SDS011;1062;52.538;13.400;2023-08-06T00:59:08;9.90;;;8.20;;
2111;SDS011;1062;52.538;13.400;2023-08-06T01:01:35;8.10;;;7.47;;
2111;SDS011;1062;52.538;13.400;2023-08-06T01:04:01;9.80;;;8.93;;
2111;SDS011;1062;52.538;13.400;2023-08-06T01:06:42;8.80;;;8.00;;
2111;SDS011;1062;52.538;13.400;2023-08-06T01:14:57;8.20;;;7.40;;
2111;SDS011;1062;52.538;13.400;2023-08-06T01:17:30;7.30;;;6.70;;
2111;SDS011;1062;52.538;13.400;2023-08-06T01:19:56;8.60;;;7.80;;
2111;SDS011;1062;52.538;13.400;2023-08-06T01:22:22;9.20;;;8.40;;
2111;SDS011;1062;52.538;13.400;2023-08-06T01:24:48;9.50;;;8.70;;
2111;SDS011;1062;52.538;13.400;2023-08-06T01:30:03;9.07;;;8.27;;
2111;SDS011;1062;52.538;13.400;2023-08-06T01:32:36;7.67;;;6.87;;
2111;SDS011;1062;52.538;13.400;2023-08-06T01:35:05;8.20;;;7.50;;
2111;SDS011;1062;52.538;13.400;2023-08-06T01:37:32;9.60;;;8.70;;
2111;SDS011;1062;52.538;13.400;2023-08-06T01:39:58;10.03;;;7.40;;
2111;SDS011;1062;52.538;13.400;2023-08-06T01:42:23;9.10;;;8.30;;
2111;SDS011;1062;52.538;13.400;2023-08-06T01:44:49;9.20;;;8.40;;
2111;SDS011;1062;52.538;13.400;2023-08-06T01:47:14;8.33;;;7.60;;
2111;SDS011;1062;52.538;13.400;2023-08-06T01:49:40;7.90;;;7.20;;
2111;SDS011;1062;52.538;13.400;2023-08-06T01:52:06;8.53;;;7.73;;
2111;SDS011;1062;52.538;13.400;2023-08-06T01:54:31;8.87;;;7.97;;
2111;SDS011;1062;52.538;13.400;2023-08-06T01:56:57;8.33;;;7.37;;
2111;SDS011;1062;52.538;13.400;2023-08-06T01:59:23;8.00;;;7.30;;
2111;SDS011;1062;52.538;13.400;2023-08-06T02:01:49;8.90;;;8.13;;
2111;SDS011;1062;52.538;13.400;2023-08-06T02:04:14;9.00;;;8.30;;
2111;SDS011;1062;52.538;13.400;2023-08-06T02:06:40;11.00;;;8.30;;
2111;SDS011;1062;52.538;13.400;2023-08-06T02:09:05;8.00;;;7.30;;
2111;SDS011;1062;52.538;13.400;2023-08-06T02:11:31;10.80;;;7.70;;
2111;SDS011;1062;52.538;13.400;2023-08-06T02:13:57;9.23;;;8.33;;
2111;SDS011;1062;52.538;13.400;2023-08-06T02:16:22;8.53;;;7.83;;
2111;SDS011;1062;52.538;13.400;2023-08-06T02:18:48;9.37;;;8.53;;
2111;SDS011;1062;52.538;13.400;2023-08-06T02:21:13;9.80;;;8.80;;
2111;SDS011;1062;52.538;13.400;2023-08-06T02:23:39;10.07;;;9.17;;
2111;SDS011;1062;52.538;13.400;2023-08-06T02:26:04;9.77;;;8.87;;
2111;SDS011;1062;52.538;13.400;2023-08-06T02:28:30;9.33;;;8.50;;
2111;SDS011;1062;52.538;13.400;2023-08-06T02:30:56;9.60;;;8.77;;
2111;SDS011;1062;52.538;13.400;2023-08-06T02:33:22;9.70;;;8.80;;
2111;SDS011;1062;52.538;13.400;2023-08-06T02:35:48;10.13;;;9.23;;
2111;SDS011;1062;52.538;13.400;2023-08-06T02:38:13;8.83;;;8.00;;
2111;SDS011;1062;52.538;13.400;2023-08-06T02:40:45;9.07;;;8.13;;
2111;SDS011;1062;52.538;13.400;2023-08-06T02:43:12;10.10;;;9.17;;
2111;SDS011;1062;52.538;13.400;2023-08-06T02:45:38;9.50;;;8.60;;
2111;SDS011;1062;52.538;13.400;2023-08-06T02:48:03;9.73;;;8.73;;
2111;SDS011;1062;52.538;13.400;2023-08-06T02:50:29;9.70;;;8.53;;
2111;SDS011;1062;52.538;13.400;2023-08-06T02:52:55;10.37;;;9.47;;
2111;SDS011;1062;52.538;13.400;2023-08-06T02:55:20;10.20;;;9.30;;
2111;SDS011;1062;52.538;13.400;2023-08-06T02:57:46;10.90;;;9.90;;
2111;SDS011;1062;52.538;13.400;2023-08-06T03:00:12;10.77;;;9.77;;
2111;SDS011;1062;52.538;13.400;2023-08-06T03:02:37;10.73;;;9.73;;
2111;SDS011;1062;52.538;13.400;2023-08-06T03:05:03;10.10;;;9.20;;
2111;SDS011;1062;52.538;13.400;2023-08-06T03:07:31;10.37;;;9.40;;
2111;SDS011;1062;52.538;13.400;2023-08-06T03:09:58;11.17;;;10.07;;
2111;SDS011;1062;52.538;13.400;2023-08-06T03:12:25;10.30;;;9.40;;
2111;SDS011;1062;52.538;13.400;2023-08-06T03:14:51;11.30;;;10.10;;
2111;SDS011;1062;52.538;13.400;2023-08-06T03:17:17;10.10;;;8.73;;
2111;SDS011;1062;52.538;13.400;2023-08-06T03:19:42;9.03;;;8.23;;
2111;SDS011;1062;52.538;13.400;2023-08-06T03:22:08;9.03;;;8.27;;
2111;SDS011;1062;52.538;13.400;2023-08-06T03:24:33;8.30;;;7.50;;
2111;SDS011;1062;52.538;13.400;2023-08-06T03:26:59;8.27;;;7.50;;
2111;SDS011;1062;52.538;13.400;2023-08-06T03:29:24;9.17;;;8.37;;
2111;SDS011;1062;52.538;13.400;2023-08-06T03:31:51;9.60;;;8.70;;
2111;SDS011;1062;52.538;13.400;2023-08-06T03:34:17;8.23;;;7.50;;
2111;SDS011;1062;52.538;13.400;2023-08-06T03:36:42;9.53;;;8.67;;
2111;SDS011;1062;52.538;13.400;2023-08-06T03:39:08;10.20;;;8.63;;
2111;SDS011;1062;52.538;13.400;2023-08-06T03:41:34;10.50;;;8.37;;
2111;SDS011;1062;52.538;13.400;2023-08-06T03:43:59;9.70;;;8.13;;
2111;SDS011;1062;52.538;13.400;2023-08-06T03:46:27;10.40;;;9.50;;
2111;SDS011;1062;52.538;13.400;2023-08-06T03:48:53;10.60;;;9.50;;
2111;SDS011;1062;52.538;13.400;2023-08-06T03:51:18;11.20;;;10.10;;
2111;SDS011;1062;52.538;13.400;2023-08-06T03:53:44;9.70;;;8.70;;
2111;SDS011;1062;52.538;13.400;2023-08-06T03:56:10;9.87;;;9.07;;
2111;SDS011;1062;52.538;13.400;2023-08-06T03:58:35;9.20;;;8.40;;
2111;SDS011;1062;52.538;13.400;2023-08-06T04:01:01;10.40;;;9.40;;
2111;SDS011;1062;52.538;13.400;2023-08-06T04:03:28;11.10;;;9.17;;
2111;SDS011;1062;52.538;13.400;2023-08-06T04:05:53;9.20;;;8.33;;
2111;SDS011;1062;52.538;13.400;2023-08-06T04:08:19;10.50;;;9.50;;
2111;SDS011;1062;52.538;13.400;2023-08-06T04:10:45;12.10;;;10.40;;
2111;SDS011;1062;52.538;13.400;2023-08-06T04:13:10;9.40;;;8.50;;
2111;SDS011;1062;52.538;13.400;2023-08-06T04:15:36;9.30;;;8.33;;
2111;SDS011;1062;52.538;13.400;2023-08-06T04:18:01;9.87;;;8.97;;
2111;SDS011;1062;52.538;13.400;2023-08-06T04:20:27;9.23;;;8.33;;
2111;SDS011;1062;52.538;13.400;2023-08-06T04:22:56;12.20;;;9.30;;
2111;SDS011;1062;52.538;13.400;2023-08-06T04:25:21;11.77;;;10.70;;
2111;SDS011;1062;52.538;13.400;2023-08-06T04:27:48;10.23;;;9.23;;
2111;SDS011;1062;52.538;13.400;2023-08-06T04:30:14;9.20;;;8.30;;
2111;SDS011;1062;52.538;13.400;2023-08-06T04:32:40;9.90;;;8.17;;
2111;SDS011;1062;52.538;13.400;2023-08-06T04:35:05;8.37;;;7.60;;
2111;SDS011;1062;52.538;13.400;2023-08-06T04:37:31;9.67;;;8.67;;
2111;SDS011;1062;52.538;13.400;2023-08-06T04:39:57;9.53;;;8.33;;
2111;SDS011;1062;52.538;13.400;2023-08-06T04:42:22;9.50;;;8.70;;
2111;SDS011;1062;52.538;13.400;2023-08-06T04:44:48;9.03;;;8.17;;
2111;SDS011;1062;52.538;13.400;2023-08-06T04:47:14;8.93;;;8.07;;
2111;SDS011;1062;52.538;13.400;2023-08-06T04:49:40;9.80;;;8.63;;
2111;SDS011;1062;52.538;13.400;2023-08-06T04:52:05;9.30;;;8.40;;
2111;SDS011;1062;52.538;13.400;2023-08-06T04:54:31;8.80;;;7.97;;
2111;SDS011;1062;52.538;13.400;2023-08-06T04:56:56;8.27;;;7.47;;
2111;SDS011;1062;52.538;13.400;2023-08-06T04:59:22;8.17;;;7.47;;
2111;SDS011;1062;52.538;13.400;2023-08-06T05:01:48;7.73;;;7.13;;
2111;SDS011;1062;52.538;13.400;2023-08-06T05:04:13;7.67;;;6.97;;
2111;SDS011;1062;52.538;13.400;2023-08-06T05:06:39;6.50;;;5.97;;
2111;SDS011;1062;52.538;13.400;2023-08-06T05:09:05;7.33;;;6.77;;
2111;SDS011;1062;52.538;13.400;2023-08-06T05:11:31;8.00;;;7.30;;
2111;SDS011;1062;52.538;13.400;2023-08-06T05:13:57;7.90;;;7.20;;
2111;SDS011;1062;52.538;13.400;2023-08-06T05:16:23;7.63;;;7.00;;
2111;SDS011;1062;52.538;13.400;2023-08-06T05:18:49;7.07;;;6.40;;
2111;SDS011;1062;52.538;13.400;2023-08-06T05:21:14;8.40;;;7.50;;
2111;SDS011;1062;52.538;13.400;2023-08-06T05:23:41;7.40;;;6.70;;
2111;SDS011;1062;52.538;13.400;2023-08-06T05:26:07;6.60;;;6.00;;
2111;SDS011;1062;52.538;13.400;2023-08-06T05:28:33;6.47;;;5.97;;
2111;SDS011;1062;52.538;13.400;2023-08-06T05:31:02;8.30;;;6.97;;
2111;SDS011;1062;52.538;13.400;2023-08-06T05:33:31;7.00;;;6.27;;
2111;SDS011;1062;52.538;13.400;2023-08-06T05:35:56;6.87;;;6.33;;
2111;SDS011;1062;52.538;13.400;2023-08-06T05:38:22;7.90;;;6.20;;
2111;SDS011;1062;52.538;13.400;2023-08-06T05:40:48;6.80;;;6.10;;
2111;SDS011;1062;52.538;13.400;2023-08-06T05:43:14;6.67;;;6.17;;
2111;SDS011;1062;52.538;13.400;2023-08-06T05:45:39;7.23;;;6.50;;
2111;SDS011;1062;52.538;13.400;2023-08-06T05:48:10;6.67;;;6.17;;
2111;SDS011;1062;52.538;13.400;2023-08-06T05:50:35;7.33;;;6.33;;
2111;SDS011;1062;52.538;13.400;2023-08-06T05:53:01;7.23;;;6.57;;
2111;SDS011;1062;52.538;13.400;2023-08-06T05:55:27;6.90;;;6.20;;
2111;SDS011;1062;52.538;13.400;2023-08-06T05:57:52;7.00;;;6.30;;
2111;SDS011;1062;52.538;13.400;2023-08-06T06:00:18;6.93;;;6.33;;
2111;SDS011;1062;52.538;13.400;2023-08-06T06:02:45;7.00;;;6.30;;
2111;SDS011;1062;52.538;13.400;2023-08-06T06:05:10;7.53;;;6.27;;
2111;SDS011;1062;52.538;13.400;2023-08-06T06:07:36;7.23;;;5.93;;
2111;SDS011;1062;52.538;13.400;2023-08-06T06:10:02;7.33;;;6.40;;
2111;SDS011;1062;52.538;13.400;2023-08-06T06:12:28;7.03;;;6.50;;
2111;SDS011;1062;52.538;13.400;2023-08-06T06:14:54;7.00;;;6.40;;
2111;SDS011;1062;52.538;13.400;2023-08-06T06:17:19;8.10;;;7.43;;
2111;SDS011;1062;52.538;13.400;2023-08-06T06:19:45;6.50;;;5.90;;
2111;SDS011;1062;52.538;13.400;2023-08-06T06:22:11;6.93;;;6.33;;
2111;SDS011;1062;52.538;13.400;2023-08-06T06:24:37;7.90;;;7.20;;
2111;SDS011;1062;52.538;13.400;2023-08-06T06:27:03;7.83;;;7.03;;
2111;SDS011;1062;52.538;13.400;2023-08-06T06:29:29;7.00;;;6.40;;
2111;SDS011;1062;52.538;13.400;2023-08-06T06:31:54;6.60;;;6.00;;
2111;SDS011;1062;52.538;13.400;2023-08-06T06:34:20;6.40;;;5.80;;
2111;SDS011;1062;52.538;13.400;2023-08-06T06:36:45;6.93;;;6.33;;
2111;SDS011;1062;52.538;13.400;2023-08-06T06:39:11;7.03;;;6.43;;
2111;SDS011;1062;52.538;13.400;2023-08-06T06:41:37;7.00;;;6.40;;
2111;SDS011;1062;52.538;13.400;2023-08-06T06:44:02;6.97;;;6.27;;
2111;SDS011;1062;52.538;13.400;2023-08-06T06:46:28;7.80;;;7.20;;
2111;SDS011;1062;52.538;13.400;2023-08-06T06:48:54;7.20;;;6.60;;
2111;SDS011;1062;52.538;13.400;2023-08-06T06:51:19;6.57;;;5.87;;
2111;SDS011;1062;52.538;13.400;2023-08-06T06:53:45;7.60;;;6.63;;
2111;SDS011;1062;52.538;13.400;2023-08-06T06:56:10;8.07;;;7.27;;
2111;SDS011;1062;52.538;13.400;2023-08-06T06:58:36;7.77;;;6.87;;
2111;SDS011;1062;52.538;13.400;2023-08-06T07:01:03;7.30;;;6.60;;
2111;SDS011;1062;52.538;13.400;2023-08-06T07:03:29;7.97;;;7.30;;
2111;SDS011;1062;52.538;13.400;2023-08-06T07:05:58;9.53;;;8.13;;
2111;SDS011;1062;52.538;13.400;2023-08-06T07:08:24;8.00;;;7.23;;
2111;SDS011;1062;52.538;13.400;2023-08-06T07:10:50;9.13;;;8.27;;
2111;SDS011;1062;52.538;13.400;2023-08-06T07:13:16;7.53;;;6.87;;
2111;SDS011;1062;52.538;13.400;2023-08-06T07:15:44;8.80;;;8.00;;
2111;SDS011;1062;52.538;13.400;2023-08-06T07:18:09;8.37;;;7.57;;
2111;SDS011;1062;52.538;13.400;2023-08-06T07:20:35;8.00;;;7.30;;
2111;SDS011;1062;52.538;13.400;2023-08-06T07:23:01;8.13;;;7.43;;
2111;SDS011;1062;52.538;13.400;2023-08-06T07:25:27;8.10;;;7.40;;
2111;SDS011;1062;52.538;13.400;2023-08-06T07:27:52;10.70;;;7.93;;
2111;SDS011;1062;52.538;13.400;2023-08-06T07:30:18;8.23;;;7.53;;
2111;SDS011;1062;52.538;13.400;2023-08-06T07:32:43;8.90;;;7.37;;
2111;SDS011;1062;52.538;13.400;2023-08-06T07:35:09;7.70;;;6.97;;
2111;SDS011;1062;52.538;13.400;2023-08-06T07:37:38;7.30;;;6.63;;
2111;SDS011;1062;52.538;13.400;2023-08-06T07:40:05;7.57;;;6.87;;
2111;SDS011;1062;52.538;13.400;2023-08-06T07:42:31;7.43;;;6.73;;
2111;SDS011;1062;52.538;13.400;2023-08-06T07:44:57;7.83;;;7.13;;
2111;SDS011;1062;52.538;13.400;2023-08-06T07:47:23;7.07;;;6.47;;
2111;SDS011;1062;52.538;13.400;2023-08-06T07:49:49;8.77;;;8.07;;
2111;SDS011;1062;52.538;13.400;2023-08-06T07:52:15;6.43;;;5.93;;
2111;SDS011;1062;52.538;13.400;2023-08-06T07:54:41;7.77;;;7.07;;
2111;SDS011;1062;52.538;13.400;2023-08-06T07:57:06;8.20;;;7.40;;
2111;SDS011;1062;52.538;13.400;2023-08-06T07:59:32;9.03;;;8.23;;
2111;SDS011;1062;52.538;13.400;2023-08-06T08:02:01;8.57;;;7.87;;
2111;SDS011;1062;52.538;13.400;2023-08-06T08:04:27;7.60;;;6.73;;
2111;SDS011;1062;52.538;13.400;2023-08-06T08:06:53;7.67;;;7.07;;
2111;SDS011;1062;52.538;13.400;2023-08-06T08:09:18;8.73;;;8.00;;
2111;SDS011;1062;52.538;13.400;2023-08-06T08:11:44;9.33;;;8.43;;
2111;SDS011;1062;52.538;13.400;2023-08-06T08:14:09;8.33;;;7.70;;
2111;SDS011;1062;52.538;13.400;2023-08-06T08:16:35;8.23;;;7.53;;
2111;SDS011;1062;52.538;13.400;2023-08-06T08:19:01;8.10;;;7.40;;
2111;SDS011;1062;52.538;13.400;2023-08-06T08:21:28;8.03;;;7.43;;
2111;SDS011;1062;52.538;13.400;2023-08-06T08:23:53;7.40;;;6.57;;
2111;SDS011;1062;52.538;13.400;2023-08-06T08:26:19;8.33;;;7.63;;
2111;SDS011;1062;52.538;13.400;2023-08-06T08:28:45;8.40;;;7.60;;
2111;SDS011;1062;52.538;13.400;2023-08-06T08:31:11;9.00;;;7.40;;
2111;SDS011;1062;52.538;13.400;2023-08-06T08:33:40;8.50;;;7.80;;
2111;SDS011;1062;52.538;13.400;2023-08-06T08:36:05;9.47;;;8.67;;
2111;SDS011;1062;52.538;13.400;2023-08-06T08:38:31;10.20;;;9.30;;
2111;SDS011;1062;52.538;13.400;2023-08-06T08:40:57;8.80;;;8.07;;
2111;SDS011;1062;52.538;13.400;2023-08-06T08:43:22;9.00;;;8.20;;
2111;SDS011;1062;52.538;13.400;2023-08-06T08:45:52;9.40;;;8.60;;
2111;SDS011;1062;52.538;13.400;2023-08-06T08:48:20;9.03;;;8.23;;
2111;SDS011;1062;52.538;13.400;2023-08-06T08:50:48;17.50;;;12.90;;
2111;SDS011;1062;52.538;13.400;2023-08-06T08:53:15;9.93;;;8.93;;
2111;SDS011;1062;52.538;13.400;2023-08-06T08:55:41;10.33;;;9.30;;
2111;SDS011;1062;52.538;13.400;2023-08-06T08:58:09;9.40;;;8.50;;
2111;SDS011;1062;52.538;13.400;2023-08-06T09:00:35;10.20;;;9.30;;
2111;SDS011;1062;52.538;13.400;2023-08-06T09:03:01;8.47;;;7.77;;
2111;SDS011;1062;52.538;13.400;2023-08-06T09:05:30;8.87;;;8.07;;
2111;SDS011;1062;52.538;13.400;2023-08-06T09:08:00;9.90;;;9.10;;
2111;SDS011;1062;52.538;13.400;2023-08-06T09:10:28;11.03;;;10.03;;
2111;SDS011;1062;52.538;13.400;2023-08-06T09:12:54;9.80;;;9.00;;
2111;SDS011;1062;52.538;13.400;2023-08-06T09:15:23;11.37;;;10.37;;
2111;SDS011;1062;52.538;13.400;2023-08-06T09:17:50;9.80;;;8.80;;
2111;SDS011;1062;52.538;13.400;2023-08-06T09:20:17;11.63;;;10.27;;
2111;SDS011;1062;52.538;13.400;2023-08-06T09:22:42;10.80;;;9.80;;
2111;SDS011;1062;52.538;13.400;2023-08-06T09:25:09;10.00;;;9.20;;
2111;SDS011;1062;52.538;13.400;2023-08-06T09:27:38;10.90;;;9.97;;
2111;SDS011;1062;52.538;13.400;2023-08-06T09:30:04;10.30;;;9.50;;
2111;SDS011;1062;52.538;13.400;2023-08-06T09:32:47;10.80;;;9.80;;
2111;SDS011;1062;52.538;13.400;2023-08-06T09:35:16;12.20;;;11.10;;
2111;SDS011;1062;52.538;13.400;2023-08-06T09:37:43;10.60;;;9.70;;
2111;SDS011;1062;52.538;13.400;2023-08-06T09:43:04;11.30;;;10.20;;
2111;SDS011;1062;52.538;13.400;2023-08-06T09:45:34;11.23;;;10.13;;
2111;SDS011;1062;52.538;13.400;2023-08-06T09:48:04;11.07;;;10.00;;
2111;SDS011;1062;52.538;13.400;2023-08-06T09:50:32;10.50;;;9.60;;
2111;SDS011;1062;52.538;13.400;2023-08-06T09:53:01;10.43;;;9.47;;
2111;SDS011;1062;52.538;13.400;2023-08-06T09:55:28;11.80;;;10.60;;
2111;SDS011;1062;52.538;13.400;2023-08-06T09:57:54;11.03;;;10.13;;
2111;SDS011;1062;52.538;13.400;2023-08-06T10:00:20;11.30;;;10.30;;
2111;SDS011;1062;52.538;13.400;2023-08-06T10:02:47;10.43;;;9.43;;
2111;SDS011;1062;52.538;13.400;2023-08-06T10:05:14;11.73;;;10.73;;
2111;SDS011;1062;52.538;13.400;2023-08-06T10:07:41;9.83;;;9.03;;
2111;SDS011;1062;52.538;13.400;2023-08-06T10:10:09;10.57;;;9.67;;
2111;SDS011;1062;52.538;13.400;2023-08-06T10:13:09;10.07;;;8.17;;
2111;SDS011;1062;52.538;13.400;2023-08-06T10:15:28;7.53;;;6.70;;
2111;SDS011;1062;52.538;13.400;2023-08-06T10:17:57;6.87;;;6.23;;
2111;SDS011;1062;52.538;13.400;2023-08-06T10:20:24;6.83;;;6.30;;
2111;SDS011;1062;52.538;13.400;2023-08-06T10:23:00;6.90;;;6.20;;
2111;SDS011;1062;52.538;13.400;2023-08-06T10:25:31;7.50;;;7.00;;
2111;SDS011;1062;52.538;13.400;2023-08-06T10:28:00;7.03;;;5.73;;
2111;SDS011;1062;52.538;13.400;2023-08-06T10:30:33;6.57;;;6.07;;
2111;SDS011;1062;52.538;13.400;2023-08-06T10:32:59;5.10;;;4.70;;
2111;SDS011;1062;52.538;13.400;2023-08-06T10:40:32;4.27;;;3.97;;
2111;SDS011;1062;52.538;13.400;2023-08-06T10:42:59;4.27;;;3.87;;
2111;SDS011;1062;52.538;13.400;2023-08-06T10:45:25;4.53;;;4.23;;
2111;SDS011;1062;52.538;13.400;2023-08-06T10:47:54;4.77;;;4.37;;
2111;SDS011;1062;52.538;13.400;2023-08-06T10:50:21;5.37;;;4.20;;
2111;SDS011;1062;52.538;13.400;2023-08-06T10:52:47;5.37;;;4.87;;
2111;SDS011;1062;52.538;13.400;2023-08-06T10:55:15;5.20;;;4.80;;
2111;SDS011;1062;52.538;13.400;2023-08-06T10:57:49;5.30;;;4.80;;
2111;SDS011;1062;52.538;13.400;2023-08-06T11:00:14;6.23;;;5.37;;
2111;SDS011;1062;52.538;13.400;2023-08-06T11:02:41;5.63;;;5.13;;
2111;SDS011;1062;52.538;13.400;2023-08-06T11:05:10;5.03;;;4.63;;
2111;SDS011;1062;52.538;13.400;2023-08-06T11:07:36;5.97;;;4.70;;
2111;SDS011;1062;52.538;13.400;2023-08-06T11:10:03;5.17;;;4.77;;
2111;SDS011;1062;52.538;13.400;2023-08-06T11:12:30;5.63;;;5.20;;
2111;SDS011;1062;52.538;13.400;2023-08-06T11:14:56;5.77;;;5.17;;
2111;SDS011;1062;52.538;13.400;2023-08-06T11:17:22;7.30;;;5.10;;
2111;SDS011;1062;52.538;13.400;2023-08-06T11:19:48;6.43;;;5.90;;
2111;SDS011;1062;52.538;13.400;2023-08-06T11:22:14;6.70;;;6.03;;
2111;SDS011;1062;52.538;13.400;2023-08-06T11:24:40;6.63;;;5.97;;
2111;SDS011;1062;52.538;13.400;2023-08-06T11:27:15;6.40;;;5.90;;
2111;SDS011;1062;52.538;13.400;2023-08-06T11:29:42;6.80;;;6.20;;
2111;SDS011;1062;52.538;13.400;2023-08-06T11:32:08;6.40;;;5.77;;
2111;SDS011;1062;52.538;13.400;2023-08-06T11:34:34;6.17;;;5.57;;
2111;SDS011;1062;52.538;13.400;2023-08-06T11:37:00;5.87;;;5.37;;
2111;SDS011;1062;52.538;13.400;2023-08-06T11:39:27;6.30;;;5.33;;
2111;SDS011;1062;52.538;13.400;2023-08-06T11:41:53;6.27;;;5.67;;
2111;SDS011;1062;52.538;13.400;2023-08-06T11:44:19;6.00;;;5.50;;
2111;SDS011;1062;52.538;13.400;2023-08-06T11:46:57;5.83;;;5.20;;
2111;SDS011;1062;52.538;13.400;2023-08-06T11:52:20;6.53;;;5.70;;
2111;SDS011;1062;52.538;13.400;2023-08-06T11:54:51;6.03;;;5.43;;
2111;SDS011;1062;52.538;13.400;2023-08-06T11:57:29;6.53;;;5.80;;
2111;SDS011;1062;52.538;13.400;2023-08-06T12:00:09;6.67;;;6.17;;
2111;SDS011;1062;52.538;13.400;2023-08-06T12:02:38;6.47;;;5.97;;
2111;SDS011;1062;52.538;13.400;2023-08-06T12:05:15;7.60;;;6.90;;
2111;SDS011;1062;52.538;13.400;2023-08-06T12:07:46;6.67;;;6.10;;
2111;SDS011;1062;52.538;13.400;2023-08-06T12:10:16;5.97;;;5.47;;
2111;SDS011;1062;52.538;13.400;2023-08-06T12:12:42;6.33;;;5.63;;
2111;SDS011;1062;52.538;13.400;2023-08-06T12:15:08;6.77;;;6.23;;
2111;SDS011;1062;52.538;13.400;2023-08-06T12:17:35;8.07;;;7.27;;
2111;SDS011;1062;52.538;13.400;2023-08-06T12:20:02;7.83;;;7.13;;
2111;SDS011;1062;52.538;13.400;2023-08-06T12:22:29;8.23;;;7.33;;
2111;SDS011;1062;52.538;13.400;2023-08-06T12:24:59;7.90;;;7.10;;
2111;SDS011;1062;52.538;13.400;2023-08-06T12:27:26;9.07;;;8.27;;
2111;SDS011;1062;52.538;13.400;2023-08-06T12:29:51;8.83;;;8.03;;
2111;SDS011;1062;52.538;13.400;2023-08-06T12:32:17;7.77;;;7.07;;
2111;SDS011;1062;52.538;13.400;2023-08-06T12:34:44;8.37;;;7.67;;
2111;SDS011;1062;52.538;13.400;2023-08-06T12:37:09;8.73;;;7.80;;
2111;SDS011;1062;52.538;13.400;2023-08-06T12:39:35;9.43;;;8.53;;
2111;SDS011;1062;52.538;13.400;2023-08-06T12:42:02;7.90;;;7.20;;
2111;SDS011;1062;52.538;13.400;2023-08-06T12:44:29;8.70;;;7.90;;
2111;SDS011;1062;52.538;13.400;2023-08-06T12:46:54;10.93;;;8.10;;
2111;SDS011;1062;52.538;13.400;2023-08-06T12:49:20;9.13;;;8.23;;
2111;SDS011;1062;52.538;13.400;2023-08-06T12:51:46;9.90;;;8.17;;
2111;SDS011;1062;52.538;13.400;2023-08-06T12:54:18;6.57;;;5.97;;
2111;SDS011;1062;52.538;13.400;2023-08-06T12:56:45;8.30;;;6.83;;
2111;SDS011;1062;52.538;13.400;2023-08-06T12:59:11;8.07;;;7.37;;
2111;SDS011;1062;52.538;13.400;2023-08-06T13:01:38;6.87;;;6.37;;
2111;SDS011;1062;52.538;13.400;2023-08-06T13:04:04;7.60;;;6.97;;
2111;SDS011;1062;52.538;13.400;2023-08-06T13:06:29;8.10;;;7.30;;
2111;SDS011;1062;52.538;13.400;2023-08-06T13:08:56;7.70;;;7.00;;
2111;SDS011;1062;52.538;13.400;2023-08-06T13:11:22;8.47;;;7.70;;
2111;SDS011;1062;52.538;13.400;2023-08-06T13:13:48;9.00;;;7.37;;
2111;SDS011;1062;52.538;13.400;2023-08-06T13:16:13;8.50;;;7.70;;
2111;SDS011;1062;52.538;13.400;2023-08-06T13:18:39;7.67;;;7.00;;
2111;SDS011;1062;52.538;13.400;2023-08-06T13:21:04;9.10;;;7.80;;
2111;SDS011;1062;52.538;13.400;2023-08-06T13:23:30;7.27;;;6.67;;
2111;SDS011;1062;52.538;13.400;2023-08-06T13:25:56;6.60;;;6.00;;
2111;SDS011;1062;52.538;13.400;2023-08-06T13:28:21;7.47;;;6.63;;
2111;SDS011;1062;52.538;13.400;2023-08-06T13:30:47;8.43;;;7.30;;
2111;SDS011;1062;52.538;13.400;2023-08-06T13:33:13;7.67;;;7.07;;
2111;SDS011;1062;52.538;13.400;2023-08-06T13:35:38;6.93;;;6.30;;
2111;SDS011;1062;52.538;13.400;2023-08-06T13:38:04;8.17;;;7.40;;
2111;SDS011;1062;52.538;13.400;2023-08-06T13:40:31;7.63;;;6.70;;
2111;SDS011;1062;52.538;13.400;2023-08-06T13:42:58;6.53;;;5.93;;
2111;SDS011;1062;52.538;13.400;2023-08-06T13:45:23;7.13;;;6.43;;
2111;SDS011;1062;52.538;13.400;2023-08-06T13:47:49;7.90;;;7.07;;
2111;SDS011;1062;52.538;13.400;2023-08-06T13:50:14;6.73;;;5.97;;
2111;SDS011;1062;52.538;13.400;2023-08-06T13:52:40;7.23;;;6.57;;
2111;SDS011;1062;52.538;13.400;2023-08-06T13:55:06;9.10;;;6.63;;
2111;SDS011;1062;52.538;13.400;2023-08-06T13:57:32;7.17;;;6.47;;
2111;SDS011;1062;52.538;13.400;2023-08-06T13:59:59;8.93;;;5.67;;
2111;SDS011;1062;52.538;13.400;2023-08-06T14:02:25;6.47;;;5.87;;
2111;SDS011;1062;52.538;13.400;2023-08-06T14:04:52;6.00;;;5.40;;
2111;SDS011;1062;52.538;13.400;2023-08-06T14:07:18;5.17;;;4.77;;
2111;SDS011;1062;52.538;13.400;2023-08-06T14:09:43;5.80;;;5.30;;
2111;SDS011;1062;52.538;13.400;2023-08-06T14:12:09;8.13;;;6.17;;
2111;SDS011;1062;52.538;13.400;2023-08-06T14:14:35;6.17;;;5.17;;
2111;SDS011;1062;52.538;13.400;2023-08-06T14:17:01;5.73;;;5.20;;
2111;SDS011;1062;52.538;13.400;2023-08-06T14:19:27;4.90;;;4.50;;
2111;SDS011;1062;52.538;13.400;2023-08-06T14:21:53;5.43;;;4.63;;
2111;SDS011;1062;52.538;13.400;2023-08-06T14:24:20;5.20;;;4.70;;
2111;SDS011;1062;52.538;13.400;2023-08-06T14:26:46;5.70;;;5.20;;
2111;SDS011;1062;52.538;13.400;2023-08-06T14:29:11;5.23;;;4.73;;
2111;SDS011;1062;52.538;13.400;2023-08-06T14:31:38;6.67;;;5.93;;
2111;SDS011;1062;52.538;13.400;2023-08-06T14:34:04;7.43;;;5.40;;
2111;SDS011;1062;52.538;13.400;2023-08-06T14:36:30;5.43;;;5.00;;
2111;SDS011;1062;52.538;13.400;2023-08-06T14:38:55;5.70;;;5.20;;
2111;SDS011;1062;52.538;13.400;2023-08-06T14:41:21;6.47;;;5.87;;
2111;SDS011;1062;52.538;13.400;2023-08-06T14:43:47;6.13;;;5.10;;
2111;SDS011;1062;52.538;13.400;2023-08-06T14:46:12;6.53;;;4.73;;
2111;SDS011;1062;52.538;13.400;2023-08-06T14:48:38;9.00;;;6.70;;
2111;SDS011;1062;52.538;13.400;2023-08-06T14:51:04;5.83;;;5.20;;
2111;SDS011;1062;52.538;13.400;2023-08-06T14:53:30;7.50;;;5.00;;
2111;SDS011;1062;52.538;13.400;2023-08-06T14:55:55;6.00;;;5.40;;
2111;SDS011;1062;52.538;13.400;2023-08-06T14:58:21;5.10;;;4.60;;
2111;SDS011;1062;52.538;13.400;2023-08-06T15:00:46;5.27;;;3.97;;
2111;SDS011;1062;52.538;13.400;2023-08-06T15:03:12;5.87;;;5.03;;
2111;SDS011;1062;52.538;13.400;2023-08-06T15:05:37;4.60;;;4.20;;
2111;SDS011;1062;52.538;13.400;2023-08-06T15:08:03;4.30;;;3.90;;
2111;SDS011;1062;52.538;13.400;2023-08-06T15:10:29;5.30;;;3.97;;
2111;SDS011;1062;52.538;13.400;2023-08-06T15:12:54;4.10;;;3.80;;